Weather at Ler Airfield

Public forecast

Using degrees Celsius for public forecast. Weather courtesy of forecast.io.

Closest aviation weather report (METAR) to Ler Airfield

Closest report is Trondheim Airport, Værnes, 23.1 nm (42.9 km) NE.

2024/05/30 02:50 (retrieved 16 minutes ago)

ENVA 300250Z AUTO 13008KT 9999 NCD 10/09 Q1010 RMK WIND 670FT 15007KT

Closest aviation forecast (TAF) to Ler Airfield

Forecast is more than 12 hours old.

Closest forecast is Salluit Airport, 2,189.3 nm (4,054.6 km) NW.

2024/05/29 14:00 (retrieved 13 hours ago)

TAF CYZG 291340Z 2914/2921 23020KT P6SM FEW012 SCT070 BKN100 TEMPO 2914/2918 BKN012 RMK NXT FCST BY 301400Z